createdAt,value
2022-12-15T00:02:21.483Z,2.45
2022-12-15T00:05:03.690Z,2.41
2022-12-15T00:07:48.228Z,2.39
2022-12-15T00:10:30.365Z,1.75
2022-12-15T00:13:12.326Z,1.68
2022-12-15T00:15:54.285Z,1.83
2022-12-15T00:18:36.268Z,1.92
2022-12-15T00:21:18.351Z,2.01
2022-12-15T00:24:02.877Z,2.08
2022-12-15T00:26:44.829Z,2.10
2022-12-15T00:29:26.780Z,2.07
2022-12-15T00:32:08.741Z,2.07
2022-12-15T00:34:50.670Z,2.05
2022-12-15T00:37:32.609Z,2.08
2022-12-15T00:40:05.424Z,2.04
2022-12-15T00:42:35.094Z,1.78
2022-12-15T00:45:04.626Z,1.55
2022-12-15T00:47:32.308Z,1.26
2022-12-15T00:50:14.243Z,1.39
2022-12-15T00:52:56.165Z,1.61
2022-12-15T00:55:40.654Z,1.78
2022-12-15T00:58:22.597Z,1.75
2022-12-15T01:01:04.523Z,1.84
2022-12-15T01:03:46.516Z,1.84
2022-12-15T01:06:29.210Z,1.79
2022-12-15T01:09:11.133Z,1.80
2022-12-15T01:11:55.673Z,1.85
2022-12-15T01:14:37.818Z,1.87
2022-12-15T01:17:19.726Z,1.83
2022-12-15T01:20:01.681Z,1.79
2022-12-15T01:22:31.165Z,1.84
2022-12-15T01:25:00.606Z,1.79
2022-12-15T01:27:32.634Z,1.77
2022-12-15T01:30:02.356Z,1.71
2022-12-15T01:32:31.818Z,1.72
2022-12-15T01:35:01.380Z,1.74
2022-12-15T01:37:30.825Z,1.76
2022-12-15T01:40:12.769Z,1.76
2022-12-15T01:42:44.847Z,1.75
2022-12-15T01:45:50.415Z,1.77
2022-12-15T01:48:23.334Z,1.76
2022-12-15T01:50:58.295Z,1.64
2022-12-15T01:53:27.970Z,1.57
2022-12-15T01:55:57.679Z,1.59
2022-12-15T01:58:29.762Z,1.64
2022-12-15T02:01:00.246Z,1.59
2022-12-15T02:03:30.533Z,1.62
2022-12-15T02:06:00.783Z,1.63
2022-12-15T02:08:30.287Z,1.65
2022-12-15T02:11:10.489Z,1.61
2022-12-15T02:13:47.354Z,1.68
2022-12-15T02:16:21.573Z,1.72
2022-12-15T02:18:55.490Z,1.68
2022-12-15T02:21:27.245Z,1.67
2022-12-15T02:24:17.678Z,1.63
2022-12-15T02:27:07.257Z,1.63
2022-12-15T02:30:12.001Z,1.63
2022-12-15T02:32:46.317Z,1.63
2022-12-15T02:35:18.407Z,1.58
2022-12-15T02:37:49.712Z,1.49
2022-12-15T02:40:19.541Z,1.44
2022-12-15T02:42:50.754Z,1.41
2022-12-15T02:45:22.480Z,1.34
2022-12-15T02:47:57.195Z,1.32
2022-12-15T02:50:50.121Z,1.26
2022-12-15T02:53:28.365Z,1.22
2022-12-15T02:56:00.286Z,1.08
2022-12-15T02:58:31.324Z,1.04
2022-12-15T03:01:00.970Z,1.09
2022-12-15T03:03:33.582Z,1.02
2022-12-15T03:06:03.292Z,1.02
2022-12-15T03:08:32.772Z,1.04
2022-12-15T03:11:02.256Z,0.98
2022-12-15T03:13:32.086Z,0.94
2022-12-15T03:16:02.765Z,0.95
2022-12-15T03:18:34.898Z,0.93
2022-12-15T03:21:04.438Z,0.91
2022-12-15T03:23:34.487Z,0.82
2022-12-15T03:26:04.089Z,0.84
2022-12-15T03:28:33.572Z,0.83
2022-12-15T03:31:03.304Z,0.80
2022-12-15T03:33:35.643Z,0.75
2022-12-15T03:36:05.199Z,0.76
2022-12-15T03:38:34.680Z,0.81
2022-12-15T03:41:04.133Z,0.88
2022-12-15T03:43:34.166Z,0.89
2022-12-15T03:46:03.854Z,0.96
2022-12-15T03:48:35.965Z,0.92
2022-12-15T03:51:05.408Z,0.89
2022-12-15T03:53:34.957Z,0.86
2022-12-15T03:56:04.486Z,0.91
2022-12-15T03:58:33.950Z,0.97
2022-12-15T04:01:12.676Z,1.04
2022-12-15T04:03:44.776Z,1.02
2022-12-15T04:06:14.240Z,1.05
2022-12-15T04:08:43.705Z,0.97
2022-12-15T04:11:13.137Z,0.63
2022-12-15T04:13:42.615Z,0.45
2022-12-15T04:16:17.827Z,0.61
2022-12-15T04:19:12.641Z,0.55
2022-12-15T04:21:39.510Z,-0.05
2022-12-15T04:24:21.838Z,0.16
2022-12-15T04:27:03.761Z,0.16
2022-12-15T04:29:45.671Z,0.40
2022-12-15T04:32:27.630Z,0.52
2022-12-15T04:35:12.109Z,0.66
2022-12-15T04:37:54.045Z,0.53
2022-12-15T04:40:35.958Z,0.55
2022-12-15T04:43:17.909Z,0.66
2022-12-15T04:45:59.893Z,0.70
2022-12-15T04:48:41.913Z,0.81
2022-12-15T04:51:26.416Z,0.87
2022-12-15T04:54:08.345Z,0.72
2022-12-15T04:56:50.301Z,0.73
2022-12-15T04:59:32.411Z,0.45
2022-12-15T05:02:14.414Z,0.32
2022-12-15T05:04:56.441Z,0.51
2022-12-15T05:07:42.206Z,0.62
2022-12-15T05:10:24.276Z,0.64
2022-12-15T05:13:06.213Z,0.72
2022-12-15T05:15:48.370Z,0.73
2022-12-15T05:18:30.395Z,0.80
2022-12-15T05:21:13.166Z,0.90
2022-12-15T05:23:57.695Z,0.89
2022-12-15T05:26:39.629Z,0.83
2022-12-15T05:29:21.762Z,0.91
2022-12-15T05:31:55.253Z,0.54
2022-12-15T05:34:26.240Z,0.45
2022-12-15T05:36:55.467Z,0.36
2022-12-15T05:39:27.566Z,0.44
2022-12-15T05:41:57.654Z,0.29
2022-12-15T05:44:27.523Z,0.22
2022-12-15T05:46:56.967Z,0.36
2022-12-15T05:49:26.441Z,0.55
2022-12-15T05:51:57.300Z,0.42
2022-12-15T05:54:29.409Z,0.28
2022-12-15T05:56:58.841Z,0.49
2022-12-15T05:59:28.280Z,0.61
2022-12-15T06:01:57.730Z,0.51
2022-12-15T06:04:27.402Z,0.69
2022-12-15T06:06:56.863Z,0.72
2022-12-15T06:09:29.074Z,0.81
2022-12-15T06:11:58.542Z,0.77
2022-12-15T06:14:28.003Z,0.85
2022-12-15T06:16:57.829Z,0.92
2022-12-15T06:19:27.320Z,0.96
2022-12-15T06:21:56.874Z,1.02
2022-12-15T06:24:28.940Z,1.06
2022-12-15T06:26:59.349Z,1.06
2022-12-15T06:29:28.950Z,1.05
2022-12-15T06:31:58.383Z,1.11
2022-12-15T06:34:27.909Z,1.06
2022-12-15T06:36:57.360Z,1.00
2022-12-15T06:39:29.391Z,0.96
2022-12-15T06:41:58.833Z,0.96
2022-12-15T06:44:28.384Z,0.94
2022-12-15T06:46:57.879Z,0.91
2022-12-15T06:49:27.496Z,0.97
2022-12-15T06:51:56.943Z,0.99
2022-12-15T06:54:28.993Z,1.02
2022-12-15T06:56:58.433Z,0.97
2022-12-15T06:59:27.920Z,0.96
2022-12-15T07:01:57.517Z,0.94
2022-12-15T07:04:27.172Z,0.92
2022-12-15T07:06:56.863Z,0.90
2022-12-15T07:09:28.917Z,0.89
2022-12-15T07:11:58.368Z,0.88
2022-12-15T07:14:27.985Z,0.89
2022-12-15T07:16:57.413Z,0.88
2022-12-15T07:19:26.916Z,0.88
2022-12-15T07:21:57.731Z,0.85
2022-12-15T07:24:29.881Z,0.79
2022-12-15T07:26:59.416Z,0.74
2022-12-15T07:29:28.928Z,0.71
2022-12-15T07:32:00.811Z,0.69
2022-12-15T07:34:30.395Z,0.70
2022-12-15T07:36:59.858Z,0.71
2022-12-15T07:39:32.028Z,0.75
2022-12-15T07:42:02.027Z,0.75
2022-12-15T07:44:31.989Z,0.83
2022-12-15T07:47:01.421Z,0.86
2022-12-15T07:49:30.883Z,0.89
2022-12-15T07:52:00.356Z,0.93
2022-12-15T07:54:32.416Z,0.93
2022-12-15T07:57:02.770Z,0.96
2022-12-15T07:59:32.262Z,1.00
2022-12-15T08:02:04.245Z,1.00
2022-12-15T08:04:33.965Z,1.03
2022-12-15T08:07:03.718Z,0.97
2022-12-15T08:09:35.781Z,0.99
2022-12-15T08:12:05.204Z,1.01
2022-12-15T08:14:35.032Z,0.99
2022-12-15T08:17:04.516Z,0.98
2022-12-15T08:19:34.262Z,1.01
2022-12-15T08:22:03.732Z,1.10
2022-12-15T08:24:35.786Z,1.13
2022-12-15T08:27:05.432Z,1.26
2022-12-15T08:29:51.810Z,1.32
2022-12-15T08:32:21.613Z,1.35
2022-12-15T08:34:51.220Z,1.38
2022-12-15T08:37:20.705Z,1.08
2022-12-15T08:39:52.763Z,0.57
2022-12-15T08:42:22.206Z,0.85
2022-12-15T08:44:51.957Z,0.73
2022-12-15T08:47:21.421Z,0.63
2022-12-15T08:49:53.021Z,0.44
2022-12-15T08:52:22.478Z,-0.02
2022-12-15T08:54:55.485Z,-0.04
2022-12-15T08:57:24.928Z,0.42
2022-12-15T08:59:54.368Z,0.73
2022-12-15T09:02:24.012Z,0.97
2022-12-15T09:04:53.635Z,0.80
2022-12-15T09:07:23.094Z,0.87
2022-12-15T09:09:55.296Z,1.07
2022-12-15T09:12:24.883Z,1.18
2022-12-15T09:14:54.404Z,1.33
2022-12-15T09:17:23.924Z,1.40
2022-12-15T09:19:53.466Z,1.14
2022-12-15T09:22:22.967Z,1.15
2022-12-15T09:24:55.036Z,1.31
2022-12-15T09:27:24.493Z,1.46
2022-12-15T09:29:53.971Z,1.55
2022-12-15T09:32:23.433Z,1.53
2022-12-15T09:34:53.769Z,1.55
2022-12-15T09:37:23.388Z,1.62
2022-12-15T09:39:55.438Z,1.68
2022-12-15T09:42:26.747Z,1.71
2022-12-15T09:45:01.188Z,1.73
2022-12-15T09:47:34.402Z,1.67
2022-12-15T09:50:04.479Z,1.70
2022-12-15T09:52:35.455Z,1.72
2022-12-15T09:55:08.285Z,1.83
2022-12-15T09:57:39.865Z,1.80
2022-12-15T10:00:21.811Z,1.84
2022-12-15T10:03:13.139Z,1.84
2022-12-15T10:06:21.556Z,1.87
2022-12-15T10:08:36.216Z,1.77
2022-12-15T10:11:10.511Z,1.53
2022-12-15T10:13:43.199Z,0.96
2022-12-15T10:16:21.277Z,1.18
2022-12-15T10:19:01.153Z,1.49
2022-12-15T10:21:31.979Z,1.61
2022-12-15T10:24:04.130Z,1.76
2022-12-15T10:26:37.209Z,1.48
2022-12-15T10:29:13.101Z,1.68
2022-12-15T10:31:44.928Z,1.76
2022-12-15T10:34:21.732Z,1.95
2022-12-15T10:36:53.070Z,1.93
2022-12-15T10:39:23.391Z,2.07
2022-12-15T10:42:23.435Z,2.02
2022-12-15T10:44:54.073Z,2.08
2022-12-15T10:47:25.907Z,2.22
2022-12-15T10:49:55.787Z,2.32
2022-12-15T10:52:27.571Z,2.38
2022-12-15T10:54:57.414Z,2.40
2022-12-15T10:57:31.716Z,2.14
2022-12-15T11:00:27.564Z,2.04
2022-12-15T11:02:57.371Z,1.42
2022-12-15T11:05:27.472Z,0.74
2022-12-15T11:07:57.725Z,0.22
2022-12-15T11:10:28.532Z,-0.38
2022-12-15T11:13:01.242Z,-0.45
2022-12-15T11:15:47.195Z,0.44
2022-12-15T11:18:30.391Z,0.97
2022-12-15T11:21:03.825Z,0.63
2022-12-15T11:23:58.610Z,0.86
2022-12-15T11:26:38.139Z,1.38
2022-12-15T11:29:17.566Z,1.45
2022-12-15T11:31:48.831Z,1.34
2022-12-15T11:34:20.391Z,1.05
2022-12-15T11:37:06.110Z,0.37
2022-12-15T11:39:49.416Z,-0.22
2022-12-15T11:42:24.689Z,-0.07
2022-12-15T11:45:01.503Z,0.23
2022-12-15T11:47:34.933Z,0.79
2022-12-15T11:50:19.931Z,1.67
2022-12-15T11:52:59.231Z,1.23
2022-12-15T11:55:37.496Z,0.95
2022-12-15T11:58:24.698Z,0.40
2022-12-15T12:00:58.779Z,0.23
2022-12-15T12:03:30.673Z,0.22
2022-12-15T12:06:04.530Z,0.42
2022-12-15T12:08:54.899Z,0.36
2022-12-15T12:11:26.648Z,0.26
2022-12-15T12:14:15.873Z,-0.12
2022-12-15T12:16:52.841Z,-0.12
2022-12-15T12:19:24.317Z,-0.22
2022-12-15T12:21:56.239Z,-0.17
2022-12-15T12:24:27.763Z,-0.14
2022-12-15T12:26:59.678Z,-0.20
2022-12-15T12:29:32.798Z,-0.25
2022-12-15T12:32:07.302Z,-0.01
2022-12-15T12:34:40.922Z,0.11
2022-12-15T12:37:16.723Z,0.17
2022-12-15T12:39:46.160Z,0.54
2022-12-15T12:42:17.885Z,0.15
2022-12-15T12:44:47.364Z,0.80
2022-12-15T12:47:23.432Z,0.58
2022-12-15T12:49:54.611Z,1.03
2022-12-15T12:52:25.989Z,1.18
2022-12-15T12:55:00.997Z,0.81
2022-12-15T12:57:36.705Z,0.82
2022-12-15T13:00:20.703Z,-0.11
2022-12-15T13:03:16.810Z,-0.30
2022-12-15T13:05:51.707Z,0.24
2022-12-15T13:08:55.843Z,0.62
2022-12-15T13:12:14.934Z,0.56
2022-12-15T13:14:51.617Z,-0.10
2022-12-15T13:17:30.486Z,-0.01
2022-12-15T13:20:20.759Z,0.02
2022-12-15T13:22:50.572Z,-0.43
2022-12-15T13:25:38.398Z,-0.22
2022-12-15T13:28:49.469Z,-0.87
2022-12-15T13:31:34.134Z,-0.83
2022-12-15T13:34:26.836Z,-0.42
2022-12-15T13:37:00.838Z,-0.59
2022-12-15T13:40:00.169Z,-0.77
2022-12-15T13:42:38.409Z,-0.63
2022-12-15T13:45:50.253Z,-0.21
2022-12-15T13:48:32.989Z,-0.09
2022-12-15T13:51:21.772Z,-0.22
2022-12-15T13:53:58.064Z,-0.31
2022-12-15T13:56:50.769Z,-0.43
2022-12-15T13:59:27.498Z,0.22
2022-12-15T14:01:57.018Z,0.71
2022-12-15T14:04:26.461Z,1.07
2022-12-15T14:06:57.183Z,1.27
2022-12-15T14:09:30.814Z,1.46
2022-12-15T14:12:00.530Z,1.52
2022-12-15T14:14:31.618Z,1.59
2022-12-15T14:17:02.276Z,1.53
2022-12-15T14:19:39.881Z,1.57
2022-12-15T14:22:27.213Z,1.56
2022-12-15T14:25:05.031Z,1.60
2022-12-15T14:27:35.511Z,1.56
2022-12-15T14:30:16.377Z,1.55
2022-12-15T14:32:45.895Z,1.15
2022-12-15T14:35:16.044Z,0.95
2022-12-15T14:37:45.863Z,1.14
2022-12-15T14:40:24.998Z,1.28
2022-12-15T14:42:57.947Z,1.36
2022-12-15T14:45:29.446Z,1.07
2022-12-15T14:50:51.229Z,0.59
2022-12-15T14:53:21.304Z,0.53
2022-12-15T14:55:53.303Z,0.04
2022-12-15T14:58:30.371Z,0.05
2022-12-15T15:01:00.414Z,0.32
2022-12-15T15:03:30.359Z,0.43
2022-12-15T15:06:01.230Z,0.82
2022-12-15T15:08:31.872Z,1.05
2022-12-15T15:11:05.353Z,1.09
2022-12-15T15:13:40.044Z,1.05
2022-12-15T15:16:18.484Z,1.06
2022-12-15T15:18:50.957Z,1.06
2022-12-15T15:21:21.691Z,1.04
2022-12-15T15:24:01.120Z,1.07
2022-12-15T15:26:33.493Z,1.03
2022-12-15T15:29:03.132Z,0.98
2022-12-15T15:31:40.479Z,0.96
2022-12-15T15:34:11.507Z,1.00
2022-12-15T15:36:41.333Z,0.94
2022-12-15T15:39:15.234Z,0.80
2022-12-15T15:41:47.359Z,0.78
2022-12-15T15:44:17.555Z,0.77
2022-12-15T15:46:49.502Z,0.70
2022-12-15T15:49:20.424Z,0.69
2022-12-15T15:51:50.056Z,0.77
2022-12-15T15:54:21.003Z,0.82
2022-12-15T15:56:52.809Z,0.96
2022-12-15T15:59:25.005Z,0.95
2022-12-15T16:01:56.045Z,0.89
2022-12-15T16:04:26.264Z,0.94
2022-12-15T16:06:55.910Z,0.94
2022-12-15T16:09:25.353Z,0.95
2022-12-15T16:11:57.533Z,0.93
2022-12-15T16:14:27.074Z,0.94
2022-12-15T16:16:57.193Z,0.93
2022-12-15T16:19:28.669Z,0.95
2022-12-15T16:21:58.128Z,0.92
2022-12-15T16:24:29.655Z,0.91
2022-12-15T16:27:02.663Z,0.89
2022-12-15T16:29:32.080Z,0.83
2022-12-15T16:32:01.600Z,0.78
2022-12-15T16:34:31.012Z,0.71
2022-12-15T16:37:00.464Z,0.61
2022-12-15T16:39:30.577Z,0.57
2022-12-15T16:42:05.429Z,0.55
2022-12-15T16:44:38.040Z,0.47
2022-12-15T16:47:07.611Z,0.45
2022-12-15T16:49:40.253Z,0.42
2022-12-15T16:52:11.910Z,0.50
2022-12-15T16:54:41.904Z,0.54
2022-12-15T16:57:19.102Z,0.49
2022-12-15T16:59:49.848Z,0.49
2022-12-15T17:02:27.133Z,0.53
2022-12-15T17:04:57.455Z,0.47
2022-12-15T17:07:27.653Z,0.56
2022-12-15T17:09:57.128Z,0.47
2022-12-15T17:12:30.201Z,0.42
2022-12-15T17:15:02.424Z,0.02
2022-12-15T17:17:31.877Z,-0.37
2022-12-15T17:20:31.863Z,-0.14
2022-12-15T17:22:52.701Z,-0.09
2022-12-15T17:25:51.987Z,0.04
2022-12-15T17:28:18.505Z,-0.04
2022-12-15T17:30:48.166Z,-0.01
2022-12-15T17:33:21.404Z,0.12
2022-12-15T17:35:51.780Z,0.26
2022-12-15T17:38:21.945Z,0.29
2022-12-15T17:40:51.750Z,0.37
2022-12-15T17:43:28.194Z,0.37
2022-12-15T17:46:01.509Z,0.41
2022-12-15T17:48:31.013Z,0.40
2022-12-15T17:51:00.771Z,0.40
2022-12-15T17:53:31.045Z,0.41
2022-12-15T17:56:00.667Z,0.35
2022-12-15T17:58:32.688Z,0.38
2022-12-15T18:01:02.164Z,0.32
2022-12-15T18:03:32.136Z,0.29
2022-12-15T18:06:01.962Z,0.32
2022-12-15T18:08:33.293Z,0.27
2022-12-15T18:11:03.382Z,0.17
2022-12-15T18:13:35.900Z,0.20
2022-12-15T18:16:05.451Z,0.20
2022-12-15T18:18:35.077Z,0.24
2022-12-15T18:21:05.522Z,0.21
2022-12-15T18:23:35.735Z,0.19
2022-12-15T18:26:05.416Z,0.24
2022-12-15T18:28:37.685Z,0.20
2022-12-15T18:31:13.224Z,0.17
2022-12-15T18:33:46.816Z,0.29
2022-12-15T18:36:16.325Z,0.21
2022-12-15T18:38:47.014Z,0.27
2022-12-15T18:41:17.786Z,0.22
2022-12-15T18:43:56.352Z,0.17
2022-12-15T18:46:25.832Z,0.11
2022-12-15T18:48:56.014Z,-0.01
2022-12-15T18:51:25.558Z,-0.03
2022-12-15T18:53:55.037Z,0.03
2022-12-15T18:56:25.257Z,0.05
2022-12-15T18:58:57.245Z,-0.03
2022-12-15T19:01:26.796Z,-0.07
2022-12-15T19:03:56.261Z,-0.10
2022-12-15T19:06:34.785Z,-0.04
2022-12-15T19:09:05.001Z,-0.08
2022-12-15T19:11:34.664Z,-0.14
2022-12-15T19:14:26.750Z,-0.14
2022-12-15T19:17:08.641Z,-0.17
2022-12-15T19:19:50.555Z,-0.19
2022-12-15T19:22:32.006Z,-0.23
2022-12-15T19:25:02.151Z,-0.15
2022-12-15T19:27:31.581Z,-0.28
2022-12-15T19:30:03.702Z,-0.17
2022-12-15T19:32:33.153Z,-0.17
2022-12-15T19:35:03.585Z,-0.05
2022-12-15T19:37:33.349Z,-0.14
2022-12-15T19:40:03.869Z,-0.19
2022-12-15T19:42:38.918Z,-0.09
2022-12-15T19:45:19.769Z,-0.05
2022-12-15T19:47:56.305Z,-0.09
2022-12-15T19:50:27.020Z,-0.14
2022-12-15T19:52:59.157Z,-0.08
2022-12-15T19:55:37.847Z,-0.04
2022-12-15T19:58:27.364Z,-0.15
2022-12-15T20:01:01.750Z,-0.22
2022-12-15T20:03:37.149Z,-0.23
2022-12-15T20:06:07.659Z,-0.26
2022-12-15T20:08:45.392Z,-0.32
2022-12-15T20:11:19.574Z,-0.39
2022-12-15T20:13:59.109Z,-0.44
2022-12-15T20:16:31.346Z,-0.37
2022-12-15T20:19:03.922Z,-0.32
2022-12-15T20:21:35.490Z,-0.32
2022-12-15T20:24:11.495Z,-0.31
2022-12-15T20:26:41.025Z,-0.31
2022-12-15T20:29:18.421Z,-0.29
2022-12-15T20:31:51.007Z,-0.35
2022-12-15T20:34:23.408Z,-0.49
2022-12-15T20:36:53.115Z,-0.48
2022-12-15T20:39:25.732Z,-0.53
2022-12-15T20:41:55.570Z,-0.43
2022-12-15T20:44:28.451Z,-0.45
2022-12-15T20:47:02.038Z,-0.53
2022-12-15T20:49:31.626Z,-0.58
2022-12-15T20:52:01.214Z,-0.82
2022-12-15T20:54:30.863Z,-0.90
2022-12-15T20:57:00.570Z,-0.94
2022-12-15T20:59:33.277Z,-0.88
2022-12-15T21:02:06.916Z,-1.01
2022-12-15T21:04:37.557Z,-0.98
2022-12-15T21:07:08.457Z,-1.03
2022-12-15T21:09:37.633Z,-1.24
2022-12-15T21:12:11.220Z,-1.20
2022-12-15T21:14:40.625Z,-1.22
2022-12-15T21:17:16.491Z,-1.19
2022-12-15T21:19:45.965Z,-1.23
2022-12-15T21:22:18.695Z,-1.51
2022-12-15T21:24:48.120Z,-1.51
2022-12-15T21:27:17.577Z,-1.52
2022-12-15T21:29:52.329Z,-1.49
2022-12-15T21:32:24.992Z,-1.28
2022-12-15T21:34:54.816Z,-1.19
2022-12-15T21:37:26.795Z,-1.24
2022-12-15T21:39:56.233Z,-1.41
2022-12-15T21:42:26.323Z,-1.20
2022-12-15T21:44:55.750Z,-1.38
2022-12-15T21:47:52.461Z,-1.56
2022-12-15T21:50:21.765Z,-1.51
2022-12-15T21:52:51.605Z,-1.44
2022-12-15T21:55:22.017Z,-1.43
2022-12-15T21:57:51.669Z,-1.25
2022-12-15T22:00:22.268Z,-1.13
2022-12-15T22:02:54.838Z,-1.01
2022-12-15T22:05:25.443Z,-0.96
2022-12-15T22:07:54.884Z,-1.19
2022-12-15T22:10:25.720Z,-1.18
2022-12-15T22:12:59.729Z,-1.12
2022-12-15T22:15:29.882Z,-1.08
2022-12-15T22:18:02.013Z,-0.99
2022-12-15T22:20:31.413Z,-0.92
2022-12-15T22:23:00.981Z,-1.00
2022-12-15T22:25:30.882Z,-0.92
2022-12-15T22:28:00.392Z,-0.90
2022-12-15T22:30:29.881Z,-0.96
2022-12-15T22:33:01.898Z,-0.93
2022-12-15T22:35:31.319Z,-0.89
2022-12-15T22:38:00.956Z,-1.09
2022-12-15T22:40:30.398Z,-1.01
2022-12-15T22:42:59.980Z,-0.86
2022-12-15T22:45:29.405Z,-0.87
2022-12-15T22:47:58.848Z,-0.93
2022-12-15T22:50:30.998Z,-0.98
2022-12-15T22:53:00.420Z,-0.93
2022-12-15T22:55:29.836Z,-1.00
2022-12-15T22:58:01.037Z,-0.95
2022-12-15T23:00:30.451Z,-0.96
2022-12-15T23:02:59.925Z,-1.03
2022-12-15T23:05:31.938Z,-1.07
2022-12-15T23:08:01.468Z,-0.93
2022-12-15T23:10:43.366Z,-0.93
2022-12-15T23:13:12.798Z,-1.09
2022-12-15T23:15:54.886Z,-1.09
2022-12-15T23:18:24.380Z,-1.17
2022-12-15T23:20:56.683Z,-1.03
2022-12-15T23:23:27.877Z,-0.98
2022-12-15T23:25:57.621Z,-0.87
2022-12-15T23:28:27.566Z,-0.83
2022-12-15T23:30:57.202Z,-0.91
2022-12-15T23:33:27.396Z,-0.88
2022-12-15T23:36:00.144Z,-1.05
2022-12-15T23:38:29.853Z,-1.08
2022-12-15T23:40:59.812Z,-0.92
2022-12-15T23:43:30.153Z,-1.00
2022-12-15T23:46:00.669Z,-1.15
2022-12-15T23:48:32.381Z,-1.18
2022-12-15T23:51:11.714Z,-1.35
2022-12-15T23:53:41.393Z,-1.43
2022-12-15T23:56:12.411Z,-1.42
2022-12-15T23:58:42.070Z,-1.40
